Strona główna
METAR-TAF:

METAR-TAF

Lotnisko :

Vannes, Francja

Szerokość geograficzna: 47-43-19N, Długość geograficzna: 2-43-41W, wysokość: 130 m

Aktualna obserwacja pogody

Raport powstał 39 minut temu, godzina 08:30 UTC
Wiatr 10 kt od północ, zmienny między północno-północny zachód i północny wschód
Temperatura 14°C
Wilgotność 82%
Ciśnienie 1004 hPa
Widzialność 10 km lub więcej
Przerywane chmury na wysokości 1500 ft
Zachmurzenie całkowite na wysokości 2200 ft

METAR: LFRV 040830Z AUTO 01010KT 330V040 9999 BKN015 OVC022 14/11 Q1004

czas: 11:09 (09:09 UTC)


TAF: brakujący

Obserwacja i prognoza pogody dla ponad 4000 lotnisk (raport METAR i TAF).

Dostępne stacje oznaczono żółtymi i czerwonymi punktami na mapie.

Najedź kursorem aby zobaczyć nazwę stacji.

Kliknij aby zobaczyć obserwacje i prognozy pogody.

Aby zmienić mapę: kliknij na zielony przycisk z czarnym krzyżykiem, aby powiększyć; na zielony przycisk z myślnikiem, aby pomniejszyć; na zielone strzałki, aby przejść do map sąsiednich.


METAR-TAF: